• Join FlightAware (Why Join?)
  • Login
  • US Flag 
11:20PM EDT


 

Airport Tracker/Info


-or-


 

Live Flight TrackerFlight Track Log ✈ N414NW ✈ 18-Oct-2013 ✈ KFTY - KDCU

Flight Track Log - Related Links

Times and Time Zones

All times are in EDT time to prevent confusion due to time zone crossing. See the N414NW flight status page for this flight to view local times or setup timezone preferences in your user account.

Time Position Orientation Groundspeed Altitude Reporting Facility
EDT Latitude Longitude Course Direction KTS MPH feet Rate Location/Type
02:27PM 33.7833 -84.5500 239° Southwest 103 119 1,900  Level Atlanta TRACON
02:28PM 33.7667 -84.5833 239° Southwest 115 132 2,900 540 Climbing Atlanta TRACON
02:29PM 33.7833 -84.6333 292° West 151 174 3,000  Climbing Atlanta TRACON
02:30PM 33.7667 -84.6833 248° West 173 199 3,000  Level Atlanta TRACON
02:30PM 33.7667 -84.7333 270° West 171 197 3,000 300 Level Atlanta TRACON
02:32PM 33.7667 -84.7833 270° West 149 171 3,700 420 Climbing Atlanta TRACON
02:33PM 33.7667 -84.8333 270° West 160 184 4,000 540 Climbing Atlanta TRACON
02:34PM 33.7667 -84.8833 270° West 147 169 4,800 720 Climbing Atlanta TRACON
02:34PM 33.7597 -84.9333 261° West 139 160 5,400 780 Climbing Atlanta Center
02:35PM 33.7594 -84.9708 269° West 122 140 6,300 900 Climbing Atlanta Center
02:36PM 33.7592 -85.0058 269° West 122 140 7,200 900 Climbing Atlanta Center
02:37PM 33.7611 -85.0383 274° West 111 128 8,200 960 Climbing Atlanta Center
02:38PM 33.7628 -85.0758 273° West 111 128 9,200 840 Climbing Atlanta Center
02:39PM 33.7644 -85.1108 273° West 101 116 9,900 360 Climbing Atlanta Center
02:40PM 33.7642 -85.1558 270° West 125 144 10,000  Climbing Atlanta Center
02:41PM 33.7658 -85.2083 272° West 149 171 10,000  Level Atlanta Center
02:42PM 33.7672 -85.2633 272° West 160 184 10,000  Level Atlanta Center
02:43PM 33.7794 -85.3108 287° West 160 184 10,000  Level Atlanta Center
02:44PM 33.8039 -85.3564 303° West 155 178 10,000  Level Atlanta Center
02:45PM 33.8286 -85.3992 305° West 155 178 10,000  Level Atlanta Center
02:46PM 33.8531 -85.4419 305° West 155 178 10,000  Level Atlanta Center
02:47PM 33.8756 -85.4850 302° West 160 184 10,000  Level Atlanta Center
02:48PM 33.9022 -85.5306 305° West 160 184 10,000  Level Atlanta Center
02:49PM 33.9203 -85.5733 297° West 160 184 10,000  Level Atlanta Center
02:50PM 33.9489 -85.6189 307° West 160 184 10,000  Level Atlanta Center
02:51PM 33.9694 -85.6569 303° West 160 184 10,000  Level Atlanta Center
02:52PM 33.9917 -85.7025 300° West 160 184 10,000  Level Atlanta Center
02:53PM 34.0161 -85.7456 304° West 160 184 10,000  Level Atlanta Center
02:54PM 34.0406 -85.7911 303° West 165 190 10,000  Level Atlanta Center
02:55PM 34.0692 -85.8394 306° West 154 177 10,000  Level Atlanta Center
02:56PM 34.0894 -85.8850 298° West 160 184 10,000  Level Atlanta Center
02:57PM 34.1158 -85.9281 307° West 165 190 10,000  Level Atlanta Center
02:58PM 34.1361 -85.9739 298° West 165 190 10,000  Level Atlanta Center
02:59PM 34.1625 -86.0194 305° West 165 190 10,000  Level Atlanta Center
03:00PM 34.1847 -86.0628 302° West 165 190 10,000  Level Atlanta Center
03:01PM 34.2069 -86.1061 302° West 165 190 10,000  Level Atlanta Center
03:02PM 34.2333 -86.1519 305° West 165 190 10,000  Level Atlanta Center
03:04PM 34.2652 -86.1803 301° West  Level FlightAware Approximate
03:11PM 34.4162 -86.4902 300° West  Level FlightAware Approximate
03:12PM 34.4374 -86.5348 300° West  Level FlightAware Approximate
03:13PM 34.4586 -86.5794 300° West  Level FlightAware Approximate
03:14PM 34.4798 -86.6240 300° West  Level FlightAware Approximate
03:15PM 34.5010 -86.6686 303° West  Level FlightAware Approximate
03:16PM 34.5243 -86.7117 303° West  Level FlightAware Approximate
03:17PM 34.5475 -86.7548 303° West  Level FlightAware Approximate
03:18PM 34.5708 -86.7979 303° West  Level FlightAware Approximate